sensor_id;sensor_type;location;lat;lon;timestamp;pressure;altitude;pressure_sealevel;temperature;humidity
55171;BME280;41060;47.510;8.680;2022-12-11T00:02:03;96396.56;;;0.46;57.56
55171;BME280;41060;47.510;8.680;2022-12-11T00:04:30;96376.16;;;0.03;58.17
55171;BME280;41060;47.510;8.680;2022-12-11T00:06:57;96396.78;;;0.24;57.86
55171;BME280;41060;47.510;8.680;2022-12-11T00:09:25;96351.44;;;0.11;57.71
55171;BME280;41060;47.510;8.680;2022-12-11T00:11:52;96399.75;;;0.51;57.45
55171;BME280;41060;47.510;8.680;2022-12-11T00:14:19;96394.69;;;0.66;57.57
55171;BME280;41060;47.510;8.680;2022-12-11T00:16:46;96393.72;;;0.84;58.11
55171;BME280;41060;47.510;8.680;2022-12-11T00:19:13;96393.09;;;0.96;57.41
55171;BME280;41060;47.510;8.680;2022-12-11T00:21:40;96376.81;;;0.91;57.09
55171;BME280;41060;47.510;8.680;2022-12-11T00:24:07;96403.09;;;1.04;57.04
55171;BME280;41060;47.510;8.680;2022-12-11T00:26:35;96402.19;;;1.05;56.96
55171;BME280;41060;47.510;8.680;2022-12-11T00:29:02;96407.28;;;1.06;56.73
55171;BME280;41060;47.510;8.680;2022-12-11T00:31:29;96407.91;;;1.11;57.26
55171;BME280;41060;47.510;8.680;2022-12-11T00:33:56;96412.03;;;1.15;56.59
55171;BME280;41060;47.510;8.680;2022-12-11T00:36:24;96413.75;;;0.99;56.50
55171;BME280;41060;47.510;8.680;2022-12-11T00:38:51;96418.50;;;0.75;57.08
55171;BME280;41060;47.510;8.680;2022-12-11T00:41:19;96422.81;;;0.42;56.57
55171;BME280;41060;47.510;8.680;2022-12-11T00:43:48;96421.22;;;0.22;56.45
55171;BME280;41060;47.510;8.680;2022-12-11T00:46:14;96416.22;;;0.17;56.67
55171;BME280;41060;47.510;8.680;2022-12-11T00:48:41;96413.53;;;0.19;56.48
55171;BME280;41060;47.510;8.680;2022-12-11T00:51:09;96415.69;;;0.11;56.59
55171;BME280;41060;47.510;8.680;2022-12-11T00:53:38;96409.88;;;0.23;56.32
55171;BME280;41060;47.510;8.680;2022-12-11T00:56:09;96419.63;;;0.37;55.95
55171;BME280;41060;47.510;8.680;2022-12-11T00:58:37;96424.44;;;0.44;55.80
55171;BME280;41060;47.510;8.680;2022-12-11T01:01:09;96420.66;;;0.50;56.23
55171;BME280;41060;47.510;8.680;2022-12-11T01:03:37;96412.00;;;0.49;57.37
55171;BME280;41060;47.510;8.680;2022-12-11T01:06:05;96423.28;;;0.67;57.02
55171;BME280;41060;47.510;8.680;2022-12-11T01:08:32;96422.19;;;0.71;56.94
55171;BME280;41060;47.510;8.680;2022-12-11T01:11:03;96419.44;;;0.74;57.04
55171;BME280;41060;47.510;8.680;2022-12-11T01:13:32;96422.03;;;0.74;57.54
55171;BME280;41060;47.510;8.680;2022-12-11T01:16:05;96423.41;;;0.81;57.10
55171;BME280;41060;47.510;8.680;2022-12-11T01:18:33;96401.59;;;0.67;57.16
55171;BME280;41060;47.510;8.680;2022-12-11T01:21:04;96427.69;;;0.82;57.09
55171;BME280;41060;47.510;8.680;2022-12-11T01:23:31;96421.63;;;0.82;57.39
55171;BME280;41060;47.510;8.680;2022-12-11T01:26:03;96423.31;;;0.83;56.90
55171;BME280;41060;47.510;8.680;2022-12-11T01:28:31;96423.41;;;0.64;57.24
55171;BME280;41060;47.510;8.680;2022-12-11T01:30:57;96429.09;;;0.55;56.95
55171;BME280;41060;47.510;8.680;2022-12-11T01:33:24;96433.31;;;0.40;57.66
55171;BME280;41060;47.510;8.680;2022-12-11T01:35:52;96386.38;;;-0.46;59.35
55171;BME280;41060;47.510;8.680;2022-12-11T01:38:19;96437.97;;;-0.20;59.94
55171;BME280;41060;47.510;8.680;2022-12-11T01:40:48;96438.81;;;-0.19;59.91
55171;BME280;41060;47.510;8.680;2022-12-11T01:43:16;96449.53;;;-0.25;59.94
55171;BME280;41060;47.510;8.680;2022-12-11T01:45:43;96448.84;;;-0.29;59.69
55171;BME280;41060;47.510;8.680;2022-12-11T01:48:13;96450.00;;;-0.17;59.65
55171;BME280;41060;47.510;8.680;2022-12-11T01:50:44;96435.34;;;-0.37;59.86
55171;BME280;41060;47.510;8.680;2022-12-11T01:53:16;96452.38;;;-0.30;59.92
55171;BME280;41060;47.510;8.680;2022-12-11T01:55:45;96447.41;;;-0.17;58.63
55171;BME280;41060;47.510;8.680;2022-12-11T01:58:14;96457.53;;;-0.11;58.06
55171;BME280;41060;47.510;8.680;2022-12-11T02:00:41;96462.22;;;-0.00;57.53
55171;BME280;41060;47.510;8.680;2022-12-11T02:03:09;96456.94;;;0.01;57.39
55171;BME280;41060;47.510;8.680;2022-12-11T02:05:37;96461.84;;;0.07;57.51
55171;BME280;41060;47.510;8.680;2022-12-11T02:08:06;96463.63;;;0.07;58.07
55171;BME280;41060;47.510;8.680;2022-12-11T02:10:45;96465.00;;;0.14;57.61
55171;BME280;41060;47.510;8.680;2022-12-11T02:13:18;96469.97;;;0.18;56.73
55171;BME280;41060;47.510;8.680;2022-12-11T02:15:49;96459.19;;;0.09;56.57
55171;BME280;41060;47.510;8.680;2022-12-11T02:18:24;96473.66;;;0.14;56.69
55171;BME280;41060;47.510;8.680;2022-12-11T02:20:57;96473.59;;;0.16;56.78
55171;BME280;41060;47.510;8.680;2022-12-11T02:29:19;96468.28;;;0.17;55.07
55171;BME280;41060;47.510;8.680;2022-12-11T02:31:52;96473.00;;;-0.08;55.92
55171;BME280;41060;47.510;8.680;2022-12-11T02:34:27;96477.25;;;-0.24;55.99
55171;BME280;41060;47.510;8.680;2022-12-11T02:36:57;96473.91;;;-0.28;56.18
55171;BME280;41060;47.510;8.680;2022-12-11T02:39:26;96449.81;;;-0.31;56.54
55171;BME280;41060;47.510;8.680;2022-12-11T02:41:54;96474.03;;;-0.29;56.50
55171;BME280;41060;47.510;8.680;2022-12-11T02:44:25;96460.09;;;-0.28;56.10
55171;BME280;41060;47.510;8.680;2022-12-11T02:46:54;96418.06;;;-0.57;56.58
55171;BME280;41060;47.510;8.680;2022-12-11T02:49:22;96459.09;;;-0.26;55.43
55171;BME280;41060;47.510;8.680;2022-12-11T02:51:51;96435.19;;;-0.34;55.20
55171;BME280;41060;47.510;8.680;2022-12-11T02:54:20;96459.75;;;-0.21;54.29
55171;BME280;41060;47.510;8.680;2022-12-11T02:56:51;96453.75;;;-0.23;54.51
55171;BME280;41060;47.510;8.680;2022-12-11T02:59:24;96453.81;;;-0.24;54.25
55171;BME280;41060;47.510;8.680;2022-12-11T03:01:53;96457.28;;;-0.24;53.73
55171;BME280;41060;47.510;8.680;2022-12-11T03:04:20;96461.56;;;-0.23;53.33
55171;BME280;41060;47.510;8.680;2022-12-11T03:06:53;96449.47;;;-0.42;53.98
55171;BME280;41060;47.510;8.680;2022-12-11T03:09:24;96455.44;;;-0.40;52.95
55171;BME280;41060;47.510;8.680;2022-12-11T03:11:52;96455.44;;;-0.78;54.77
55171;BME280;41060;47.510;8.680;2022-12-11T03:14:19;96458.31;;;-0.84;55.00
55171;BME280;41060;47.510;8.680;2022-12-11T03:16:51;96469.91;;;-0.91;55.15
55171;BME280;41060;47.510;8.680;2022-12-11T03:19:27;96470.97;;;-0.76;55.47
55171;BME280;41060;47.510;8.680;2022-12-11T03:22:05;96474.88;;;-0.66;54.59
55171;BME280;41060;47.510;8.680;2022-12-11T03:24:37;96465.03;;;-0.60;54.39
55171;BME280;41060;47.510;8.680;2022-12-11T03:27:14;96464.13;;;-0.59;54.50
55171;BME280;41060;47.510;8.680;2022-12-11T03:29:51;96470.91;;;-0.56;53.93
55171;BME280;41060;47.510;8.680;2022-12-11T03:32:23;96470.16;;;-0.58;54.08
55171;BME280;41060;47.510;8.680;2022-12-11T03:34:56;96467.63;;;-0.60;53.69
55171;BME280;41060;47.510;8.680;2022-12-11T03:37:27;96469.56;;;-0.65;52.92
55171;BME280;41060;47.510;8.680;2022-12-11T03:39:59;96453.06;;;-0.82;53.42
55171;BME280;41060;47.510;8.680;2022-12-11T03:42:28;96462.41;;;-0.78;53.48
55171;BME280;41060;47.510;8.680;2022-12-11T03:45:00;96461.78;;;-0.83;53.18
55171;BME280;41060;47.510;8.680;2022-12-11T03:47:31;96468.31;;;-0.75;54.09
55171;BME280;41060;47.510;8.680;2022-12-11T03:49:59;96475.91;;;-0.70;54.41
55171;BME280;41060;47.510;8.680;2022-12-11T03:52:28;96488.16;;;-0.72;54.63
55171;BME280;41060;47.510;8.680;2022-12-11T03:54:58;96444.63;;;-1.26;55.58
55171;BME280;41060;47.510;8.680;2022-12-11T03:57:28;96491.44;;;-1.08;55.90
55171;BME280;41060;47.510;8.680;2022-12-11T03:59:56;96501.78;;;-1.26;55.83
55171;BME280;41060;47.510;8.680;2022-12-11T04:02:23;96484.81;;;-1.35;56.30
55171;BME280;41060;47.510;8.680;2022-12-11T04:04:51;96508.19;;;-1.35;56.23
55171;BME280;41060;47.510;8.680;2022-12-11T04:07:18;96464.34;;;-1.83;56.33
55171;BME280;41060;47.510;8.680;2022-12-11T04:09:45;96506.66;;;-1.81;57.78
55171;BME280;41060;47.510;8.680;2022-12-11T04:12:11;96503.75;;;-1.74;58.62
55171;BME280;41060;47.510;8.680;2022-12-11T04:14:40;96476.81;;;-1.91;59.06
55171;BME280;41060;47.510;8.680;2022-12-11T04:17:24;96496.19;;;-1.58;57.55
55171;BME280;41060;47.510;8.680;2022-12-11T04:20:10;96498.88;;;-1.39;55.39
55171;BME280;41060;47.510;8.680;2022-12-11T04:22:54;96494.91;;;-1.48;55.03
55171;BME280;41060;47.510;8.680;2022-12-11T04:25:39;96460.56;;;-2.18;56.08
55171;BME280;41060;47.510;8.680;2022-12-11T04:28:06;96490.84;;;-1.97;56.59
55171;BME280;41060;47.510;8.680;2022-12-11T04:30:32;96482.41;;;-2.02;56.93
55171;BME280;41060;47.510;8.680;2022-12-11T04:33:00;96487.06;;;-2.10;57.82
55171;BME280;41060;47.510;8.680;2022-12-11T04:35:28;96484.75;;;-1.96;58.02
55171;BME280;41060;47.510;8.680;2022-12-11T04:37:54;96484.78;;;-1.76;57.32
55171;BME280;41060;47.510;8.680;2022-12-11T04:40:22;96482.81;;;-1.69;56.78
55171;BME280;41060;47.510;8.680;2022-12-11T04:42:48;96484.31;;;-1.63;55.75
55171;BME280;41060;47.510;8.680;2022-12-11T04:45:15;96481.16;;;-1.92;54.95
55171;BME280;41060;47.510;8.680;2022-12-11T04:47:42;96494.28;;;-1.96;55.56
55171;BME280;41060;47.510;8.680;2022-12-11T04:50:10;96494.53;;;-2.02;55.60
55171;BME280;41060;47.510;8.680;2022-12-11T04:52:40;96491.69;;;-2.18;56.43
55171;BME280;41060;47.510;8.680;2022-12-11T04:55:08;96487.25;;;-2.36;57.18
55171;BME280;41060;47.510;8.680;2022-12-11T04:57:35;96394.25;;;-2.89;56.45
55171;BME280;41060;47.510;8.680;2022-12-11T05:00:03;96483.81;;;-2.37;56.64
55171;BME280;41060;47.510;8.680;2022-12-11T05:02:33;96483.66;;;-2.34;56.64
55171;BME280;41060;47.510;8.680;2022-12-11T05:05:01;96491.44;;;-2.34;57.16
55171;BME280;41060;47.510;8.680;2022-12-11T05:07:27;96489.34;;;-2.24;56.20
55171;BME280;41060;47.510;8.680;2022-12-11T05:09:56;96485.34;;;-2.33;57.13
55171;BME280;41060;47.510;8.680;2022-12-11T05:12:22;96466.78;;;-2.66;55.47
55171;BME280;41060;47.510;8.680;2022-12-11T05:14:50;96480.31;;;-2.36;55.38
55171;BME280;41060;47.510;8.680;2022-12-11T05:17:17;96484.75;;;-2.18;56.34
55171;BME280;41060;47.510;8.680;2022-12-11T05:19:46;96480.06;;;-2.30;53.77
55171;BME280;41060;47.510;8.680;2022-12-11T05:22:12;96476.16;;;-2.63;54.11
55171;BME280;41060;47.510;8.680;2022-12-11T05:24:39;96481.72;;;-3.20;54.79
55171;BME280;41060;47.510;8.680;2022-12-11T05:27:07;96486.81;;;-3.42;58.06
55171;BME280;41060;47.510;8.680;2022-12-11T05:29:34;96482.81;;;-3.52;58.94
55171;BME280;41060;47.510;8.680;2022-12-11T05:32:02;96485.28;;;-3.74;60.33
55171;BME280;41060;47.510;8.680;2022-12-11T05:34:29;96479.41;;;-3.78;60.80
55171;BME280;41060;47.510;8.680;2022-12-11T05:36:55;96481.72;;;-3.45;60.40
55171;BME280;41060;47.510;8.680;2022-12-11T05:39:22;96487.53;;;-3.14;59.07
55171;BME280;41060;47.510;8.680;2022-12-11T05:41:49;96483.25;;;-2.92;59.04
55171;BME280;41060;47.510;8.680;2022-12-11T05:44:17;96486.88;;;-2.72;56.71
55171;BME280;41060;47.510;8.680;2022-12-11T05:46:44;96483.78;;;-2.59;56.09
55171;BME280;41060;47.510;8.680;2022-12-11T05:49:11;96483.59;;;-2.54;56.65
55171;BME280;41060;47.510;8.680;2022-12-11T05:51:37;96487.81;;;-2.52;56.50
55171;BME280;41060;47.510;8.680;2022-12-11T05:54:06;96490.66;;;-2.81;56.15
55171;BME280;41060;47.510;8.680;2022-12-11T05:56:34;96495.03;;;-3.06;55.84
55171;BME280;41060;47.510;8.680;2022-12-11T05:59:03;96489.44;;;-3.44;56.71
55171;BME280;41060;47.510;8.680;2022-12-11T06:01:34;96493.94;;;-3.75;58.11
55171;BME280;41060;47.510;8.680;2022-12-11T06:04:03;96447.72;;;-3.84;58.19
55171;BME280;41060;47.510;8.680;2022-12-11T06:06:31;96495.78;;;-3.28;57.78
55171;BME280;41060;47.510;8.680;2022-12-11T06:08:59;96496.41;;;-3.21;58.19
55171;BME280;41060;47.510;8.680;2022-12-11T06:11:28;96445.91;;;-3.33;58.34
55171;BME280;41060;47.510;8.680;2022-12-11T06:13:55;96460.47;;;-3.05;57.57
55171;BME280;41060;47.510;8.680;2022-12-11T06:16:22;96497.34;;;-2.75;57.08
55171;BME280;41060;47.510;8.680;2022-12-11T06:18:50;96330.59;;;-3.64;55.92
55171;BME280;41060;47.510;8.680;2022-12-11T06:21:20;96491.56;;;-2.59;55.59
55171;BME280;41060;47.510;8.680;2022-12-11T06:23:49;96489.63;;;-2.54;53.83
55171;BME280;41060;47.510;8.680;2022-12-11T06:26:18;96483.66;;;-2.56;54.24
55171;BME280;41060;47.510;8.680;2022-12-11T06:28:45;96492.88;;;-2.48;53.42
55171;BME280;41060;47.510;8.680;2022-12-11T06:31:12;96489.97;;;-2.63;53.06
55171;BME280;41060;47.510;8.680;2022-12-11T06:33:40;96438.91;;;-3.06;54.08
55171;BME280;41060;47.510;8.680;2022-12-11T06:36:10;96485.81;;;-2.90;53.51
55171;BME280;41060;47.510;8.680;2022-12-11T06:38:37;96485.06;;;-3.17;54.21
55171;BME280;41060;47.510;8.680;2022-12-11T06:41:06;96482.22;;;-3.34;53.97
55171;BME280;41060;47.510;8.680;2022-12-11T06:43:36;96485.78;;;-3.38;55.44
55171;BME280;41060;47.510;8.680;2022-12-11T06:46:05;96491.81;;;-3.38;55.14
55171;BME280;41060;47.510;8.680;2022-12-11T06:48:32;96494.91;;;-3.53;55.56
55171;BME280;41060;47.510;8.680;2022-12-11T06:51:04;96497.47;;;-3.76;56.73
55171;BME280;41060;47.510;8.680;2022-12-11T06:53:35;96419.44;;;-4.15;56.52
55171;BME280;41060;47.510;8.680;2022-12-11T06:56:02;96493.06;;;-3.74;56.24
55171;BME280;41060;47.510;8.680;2022-12-11T06:58:29;96488.00;;;-3.77;56.06
55171;BME280;41060;47.510;8.680;2022-12-11T07:00:57;96452.69;;;-4.04;56.78
55171;BME280;41060;47.510;8.680;2022-12-11T07:03:25;96494.34;;;-3.87;56.48
55171;BME280;41060;47.510;8.680;2022-12-11T07:05:52;96492.06;;;-3.96;56.71
55171;BME280;41060;47.510;8.680;2022-12-11T07:08:19;96493.03;;;-3.99;57.08
55171;BME280;41060;47.510;8.680;2022-12-11T07:10:47;96408.28;;;-4.43;56.95
55171;BME280;41060;47.510;8.680;2022-12-11T07:13:13;96495.56;;;-3.71;56.50
55171;BME280;41060;47.510;8.680;2022-12-11T07:15:41;96501.41;;;-3.66;56.78
55171;BME280;41060;47.510;8.680;2022-12-11T07:18:07;96501.06;;;-3.55;55.54
55171;BME280;41060;47.510;8.680;2022-12-11T07:20:35;96503.28;;;-3.45;55.99
55171;BME280;41060;47.510;8.680;2022-12-11T07:23:02;96507.06;;;-3.30;54.96
55171;BME280;41060;47.510;8.680;2022-12-11T07:25:28;96512.34;;;-3.32;54.96
55171;BME280;41060;47.510;8.680;2022-12-11T07:27:57;96506.84;;;-3.47;54.49
55171;BME280;41060;47.510;8.680;2022-12-11T07:30:24;96507.00;;;-3.53;54.81
55171;BME280;41060;47.510;8.680;2022-12-11T07:32:51;96480.16;;;-3.76;55.05
55171;BME280;41060;47.510;8.680;2022-12-11T07:35:18;96508.63;;;-3.49;55.22
55171;BME280;41060;47.510;8.680;2022-12-11T07:37:45;96491.00;;;-3.64;54.82
55171;BME280;41060;47.510;8.680;2022-12-11T07:40:13;96509.09;;;-3.38;55.05
55171;BME280;41060;47.510;8.680;2022-12-11T07:42:40;96500.59;;;-3.17;54.85
55171;BME280;41060;47.510;8.680;2022-12-11T07:45:09;96501.66;;;-2.99;55.30
55171;BME280;41060;47.510;8.680;2022-12-11T07:47:36;96490.84;;;-2.87;54.64
55171;BME280;41060;47.510;8.680;2022-12-11T07:50:03;96493.88;;;-2.74;54.65
55171;BME280;41060;47.510;8.680;2022-12-11T07:52:32;96492.84;;;-2.70;54.90
55171;BME280;41060;47.510;8.680;2022-12-11T07:54:58;96489.06;;;-2.62;54.53
55171;BME280;41060;47.510;8.680;2022-12-11T07:57:26;96497.16;;;-2.71;53.61
55171;BME280;41060;47.510;8.680;2022-12-11T07:59:53;96500.09;;;-3.03;54.89
55171;BME280;41060;47.510;8.680;2022-12-11T08:02:21;96501.28;;;-3.12;55.54
55171;BME280;41060;47.510;8.680;2022-12-11T08:04:47;96501.22;;;-3.35;55.22
55171;BME280;41060;47.510;8.680;2022-12-11T08:07:15;96480.16;;;-3.76;56.37
55171;BME280;41060;47.510;8.680;2022-12-11T08:09:41;96503.16;;;-3.93;57.44
55171;BME280;41060;47.510;8.680;2022-12-11T08:12:08;96503.75;;;-3.58;65.12
55171;BME280;41060;47.510;8.680;2022-12-11T08:14:36;96500.66;;;-3.18;63.64
55171;BME280;41060;47.510;8.680;2022-12-11T08:17:03;96507.44;;;-2.91;60.52
55171;BME280;41060;47.510;8.680;2022-12-11T08:19:31;96503.63;;;-2.81;57.64
55171;BME280;41060;47.510;8.680;2022-12-11T08:21:58;96493.00;;;-2.75;56.61
55171;BME280;41060;47.510;8.680;2022-12-11T08:24:24;96504.38;;;-2.79;56.36
55171;BME280;41060;47.510;8.680;2022-12-11T08:26:51;96443.88;;;-3.01;56.54
55171;BME280;41060;47.510;8.680;2022-12-11T08:29:19;96507.38;;;-2.90;55.14
55171;BME280;41060;47.510;8.680;2022-12-11T08:31:45;96508.81;;;-3.06;56.08
55171;BME280;41060;47.510;8.680;2022-12-11T08:34:12;96508.50;;;-2.97;55.35
55171;BME280;41060;47.510;8.680;2022-12-11T08:36:40;96507.06;;;-3.30;54.49
55171;BME280;41060;47.510;8.680;2022-12-11T08:39:08;96511.91;;;-3.19;54.83
55171;BME280;41060;47.510;8.680;2022-12-11T08:41:34;96510.47;;;-3.28;55.14
55171;BME280;41060;47.510;8.680;2022-12-11T08:44:04;96501.50;;;-3.43;55.72
55171;BME280;41060;47.510;8.680;2022-12-11T08:46:32;96506.88;;;-3.49;55.82
55171;BME280;41060;47.510;8.680;2022-12-11T08:48:59;96504.28;;;-3.49;55.73
55171;BME280;41060;47.510;8.680;2022-12-11T08:51:30;96508.78;;;-3.54;56.03
55171;BME280;41060;47.510;8.680;2022-12-11T08:53:59;96508.06;;;-3.59;56.85
55171;BME280;41060;47.510;8.680;2022-12-11T08:56:26;96502.44;;;-3.45;57.38
55171;BME280;41060;47.510;8.680;2022-12-11T08:58:53;96495.91;;;-3.07;56.03
55171;BME280;41060;47.510;8.680;2022-12-11T09:01:22;96448.59;;;-3.11;56.08
55171;BME280;41060;47.510;8.680;2022-12-11T09:03:49;96439.53;;;-3.24;55.02
55171;BME280;41060;47.510;8.680;2022-12-11T09:06:19;96495.56;;;-3.21;56.14
55171;BME280;41060;47.510;8.680;2022-12-11T09:08:46;96481.53;;;-3.39;56.82
55171;BME280;41060;47.510;8.680;2022-12-11T09:11:19;96485.53;;;-3.31;56.92
55171;BME280;41060;47.510;8.680;2022-12-11T09:13:47;96484.66;;;-3.31;57.08
55171;BME280;41060;47.510;8.680;2022-12-11T09:16:16;96490.50;;;-3.01;56.92
55171;BME280;41060;47.510;8.680;2022-12-11T09:18:45;96495.19;;;-2.64;57.53
55171;BME280;41060;47.510;8.680;2022-12-11T09:21:13;96490.44;;;-2.30;56.20
55171;BME280;41060;47.510;8.680;2022-12-11T09:23:41;96489.88;;;-2.38;54.22
55171;BME280;41060;47.510;8.680;2022-12-11T09:26:09;96480.78;;;-2.71;55.07
55171;BME280;41060;47.510;8.680;2022-12-11T09:28:39;96486.75;;;-2.93;55.38
55171;BME280;41060;47.510;8.680;2022-12-11T09:31:07;96481.00;;;-3.01;55.79
55171;BME280;41060;47.510;8.680;2022-12-11T09:33:34;96489.84;;;-3.06;56.33
55171;BME280;41060;47.510;8.680;2022-12-11T09:36:03;96493.28;;;-3.06;56.68
55171;BME280;41060;47.510;8.680;2022-12-11T09:38:30;96478.53;;;-3.04;56.90
55171;BME280;41060;47.510;8.680;2022-12-11T09:40:59;96483.94;;;-3.10;57.30
55171;BME280;41060;47.510;8.680;2022-12-11T09:43:35;96480.38;;;-3.07;57.82
55171;BME280;41060;47.510;8.680;2022-12-11T09:46:10;96478.69;;;-3.08;59.48
55171;BME280;41060;47.510;8.680;2022-12-11T09:48:39;96477.66;;;-3.03;58.89
55171;BME280;41060;47.510;8.680;2022-12-11T09:51:14;96467.44;;;-3.07;59.56
55171;BME280;41060;47.510;8.680;2022-12-11T09:53:47;96468.63;;;-2.93;59.30
55171;BME280;41060;47.510;8.680;2022-12-11T09:56:17;96459.72;;;-2.85;59.92
55171;BME280;41060;47.510;8.680;2022-12-11T09:58:56;96456.19;;;-2.83;59.64
55171;BME280;41060;47.510;8.680;2022-12-11T10:01:33;96460.41;;;-2.80;59.74
55171;BME280;41060;47.510;8.680;2022-12-11T10:04:16;96458.50;;;-2.75;60.12
55171;BME280;41060;47.510;8.680;2022-12-11T10:06:47;96454.56;;;-2.64;59.24
55171;BME280;41060;47.510;8.680;2022-12-11T10:09:21;96456.78;;;-2.53;59.71
55171;BME280;41060;47.510;8.680;2022-12-11T10:12:06;96457.47;;;-2.50;59.05
55171;BME280;41060;47.510;8.680;2022-12-11T10:14:47;96446.97;;;-2.45;58.58
55171;BME280;41060;47.510;8.680;2022-12-11T10:17:22;96440.13;;;-2.26;58.41
55171;BME280;41060;47.510;8.680;2022-12-11T10:19:52;96432.63;;;-2.12;57.95
55171;BME280;41060;47.510;8.680;2022-12-11T10:22:22;96438.78;;;-1.92;57.75
55171;BME280;41060;47.510;8.680;2022-12-11T10:24:53;96423.84;;;-2.07;58.10
55171;BME280;41060;47.510;8.680;2022-12-11T10:27:24;96419.81;;;-2.15;58.28
55171;BME280;41060;47.510;8.680;2022-12-11T10:30:00;96388.72;;;-2.36;58.34
55171;BME280;41060;47.510;8.680;2022-12-11T10:32:36;96422.47;;;-2.16;58.16
55171;BME280;41060;47.510;8.680;2022-12-11T10:35:08;96416.31;;;-2.14;58.82
55171;BME280;41060;47.510;8.680;2022-12-11T10:37:43;96410.50;;;-1.78;57.21
55171;BME280;41060;47.510;8.680;2022-12-11T10:40:11;96378.28;;;-1.93;56.97
55171;BME280;41060;47.510;8.680;2022-12-11T10:42:38;96407.34;;;-1.85;56.72
55171;BME280;41060;47.510;8.680;2022-12-11T10:45:06;96401.28;;;-1.45;56.51
55171;BME280;41060;47.510;8.680;2022-12-11T10:47:34;96386.44;;;-1.22;56.01
55171;BME280;41060;47.510;8.680;2022-12-11T10:50:02;96368.00;;;-1.55;55.67
55171;BME280;41060;47.510;8.680;2022-12-11T10:52:32;96386.63;;;-1.66;56.20
55171;BME280;41060;47.510;8.680;2022-12-11T10:55:04;96387.84;;;-1.75;57.27
55171;BME280;41060;47.510;8.680;2022-12-11T10:57:34;96378.53;;;-1.79;57.01
55171;BME280;41060;47.510;8.680;2022-12-11T11:00:03;96379.38;;;-1.78;56.91
55171;BME280;41060;47.510;8.680;2022-12-11T11:02:35;96368.94;;;-1.77;57.78
55171;BME280;41060;47.510;8.680;2022-12-11T11:05:11;96362.81;;;-1.76;57.88
55171;BME280;41060;47.510;8.680;2022-12-11T11:07:38;96354.66;;;-1.87;58.14
55171;BME280;41060;47.510;8.680;2022-12-11T11:10:14;96360.88;;;-1.70;58.45
55171;BME280;41060;47.510;8.680;2022-12-11T11:12:42;96362.16;;;-1.60;57.10
55171;BME280;41060;47.510;8.680;2022-12-11T11:15:12;96325.66;;;-1.76;56.51
55171;BME280;41060;47.510;8.680;2022-12-11T11:17:45;96356.56;;;-1.51;56.69
55171;BME280;41060;47.510;8.680;2022-12-11T11:20:14;96349.06;;;-1.39;56.97
55171;BME280;41060;47.510;8.680;2022-12-11T11:22:44;96355.94;;;-1.17;58.18
55171;BME280;41060;47.510;8.680;2022-12-11T11:25:16;96352.75;;;-1.05;57.70
55171;BME280;41060;47.510;8.680;2022-12-11T11:27:47;96351.06;;;-1.06;57.29
55171;BME280;41060;47.510;8.680;2022-12-11T11:30:18;96326.69;;;-1.22;57.50
55171;BME280;41060;47.510;8.680;2022-12-11T11:32:49;96346.28;;;-1.15;58.01
55171;BME280;41060;47.510;8.680;2022-12-11T11:35:20;96329.41;;;-1.44;58.87
55171;BME280;41060;47.510;8.680;2022-12-11T11:37:56;96341.09;;;-1.34;58.57
55171;BME280;41060;47.510;8.680;2022-12-11T11:40:27;96335.56;;;-1.26;58.99
55171;BME280;41060;47.510;8.680;2022-12-11T11:43:04;96340.31;;;-1.36;59.77
55171;BME280;41060;47.510;8.680;2022-12-11T11:45:36;96247.69;;;-1.93;58.44
55171;BME280;41060;47.510;8.680;2022-12-11T11:48:16;96333.44;;;-1.18;58.39
55171;BME280;41060;47.510;8.680;2022-12-11T11:50:46;96339.84;;;-1.07;58.36
55171;BME280;41060;47.510;8.680;2022-12-11T11:53:19;96331.84;;;-1.02;57.60
55171;BME280;41060;47.510;8.680;2022-12-11T11:55:52;96323.09;;;-1.01;56.95
55171;BME280;41060;47.510;8.680;2022-12-11T11:58:22;96310.22;;;-1.03;56.82
55171;BME280;41060;47.510;8.680;2022-12-11T12:00:53;96328.63;;;-0.71;56.83
55171;BME280;41060;47.510;8.680;2022-12-11T12:03:23;96328.00;;;-0.58;56.67
55171;BME280;41060;47.510;8.680;2022-12-11T12:05:53;96314.78;;;-0.36;56.13
55171;BME280;41060;47.510;8.680;2022-12-11T12:08:34;96312.56;;;-0.09;55.29
55171;BME280;41060;47.510;8.680;2022-12-11T12:11:16;96307.00;;;-0.01;55.22
55171;BME280;41060;47.510;8.680;2022-12-11T12:13:59;96306.03;;;0.17;54.83
55171;BME280;41060;47.510;8.680;2022-12-11T12:16:38;96302.56;;;0.34;54.45
55171;BME280;41060;47.510;8.680;2022-12-11T12:19:15;96293.13;;;-0.02;53.53
55171;BME280;41060;47.510;8.680;2022-12-11T12:21:49;96307.44;;;-0.28;54.38
55171;BME280;41060;47.510;8.680;2022-12-11T12:24:27;96295.66;;;-0.18;54.25
55171;BME280;41060;47.510;8.680;2022-12-11T12:27:04;96301.19;;;-0.06;54.21
55171;BME280;41060;47.510;8.680;2022-12-11T12:29:43;96304.63;;;-0.23;54.13
55171;BME280;41060;47.510;8.680;2022-12-11T12:32:18;96300.03;;;-0.18;54.53
55171;BME280;41060;47.510;8.680;2022-12-11T12:35:05;96308.16;;;-0.07;54.21
55171;BME280;41060;47.510;8.680;2022-12-11T12:37:49;96299.44;;;-0.06;54.69
55171;BME280;41060;47.510;8.680;2022-12-11T12:40:27;96298.94;;;-0.31;54.20
55171;BME280;41060;47.510;8.680;2022-12-11T12:43:04;96299.78;;;-0.31;54.63
55171;BME280;41060;47.510;8.680;2022-12-11T12:45:38;96294.88;;;-0.20;54.88
55171;BME280;41060;47.510;8.680;2022-12-11T12:48:09;96298.19;;;-0.33;54.88
55171;BME280;41060;47.510;8.680;2022-12-11T12:50:45;96294.50;;;-0.46;55.52
55171;BME280;41060;47.510;8.680;2022-12-11T12:53:20;96298.31;;;-0.53;55.85
55171;BME280;41060;47.510;8.680;2022-12-11T12:55:50;96291.34;;;-0.53;56.31
55171;BME280;41060;47.510;8.680;2022-12-11T12:58:25;96268.13;;;-0.39;55.85
55171;BME280;41060;47.510;8.680;2022-12-11T13:01:05;96283.03;;;-0.25;55.32
55171;BME280;41060;47.510;8.680;2022-12-11T13:03:35;96284.03;;;-0.10;55.41
55171;BME280;41060;47.510;8.680;2022-12-11T13:06:07;96249.22;;;-0.25;54.86
55171;BME280;41060;47.510;8.680;2022-12-11T13:08:39;96262.06;;;-0.22;55.11
55171;BME280;41060;47.510;8.680;2022-12-11T13:11:09;96281.09;;;0.13;54.72
55171;BME280;41060;47.510;8.680;2022-12-11T13:13:39;96266.19;;;0.16;54.54
55171;BME280;41060;47.510;8.680;2022-12-11T13:16:24;96289.22;;;0.40;53.91
55171;BME280;41060;47.510;8.680;2022-12-11T13:18:54;96282.56;;;0.51;54.30
55171;BME280;41060;47.510;8.680;2022-12-11T13:21:28;96283.72;;;0.61;54.22
55171;BME280;41060;47.510;8.680;2022-12-11T13:24:14;96280.72;;;0.69;53.89